• Join FlightAware (Why Join?)
  • Login
  • US Flag 
03:03PM EDT


 

Airport Tracker/Info


-or-


 

Live Flight TrackerFlight Track Log ✈ PDT4197 ✈ 10-Jun-2013 ✈ KPGV - KCLT

Flight Track Log - Related Links

Times and Time Zones

All times are in EDT time to prevent confusion due to time zone crossing. See the PDT4197 flight status page for this flight to view local times or setup timezone preferences in your user account.

Time Position Orientation Groundspeed Altitude Reporting Facility
EDT Latitude Longitude Course Direction KTS MPH feet Rate Location/Type
03:00PM 35.6861 -77.3667 303° West 243 280 3,200  Level Washington Center
03:01PM 35.7103 -77.4133 303° West 179 206 4,400 1,260 Climbing Washington Center
03:02PM 35.7200 -77.4700 282° West 162 186 5,700 1,200 Climbing Washington Center
03:03PM 35.7253 -77.5236 277° West 157 181 6,800 1,080 Climbing Washington Center
03:04PM 35.7347 -77.5828 281° West 170 196 7,900 1,020 Climbing Washington Center
03:05PM 35.7381 -77.6367 274° West 170 196 8,900 900 Climbing Washington Center
03:06PM 35.7456 -77.6906 280° West 170 196 9,800 900 Climbing Washington Center
03:07PM 35.7528 -77.7469 279° West 170 196 10,700 840 Climbing Washington Center
03:08PM 35.7600 -77.8061 279° West 170 196 11,500 540 Climbing Washington Center
03:09PM 35.7672 -77.8625 279° West 165 190 11,900 240 Climbing Washington Center
03:10PM 35.7767 -77.9244 281° West 176 203 12,000  Climbing Washington Center
03:11PM 35.8219 -77.9564 330° Northwest 169 194 12,000  Level Washington Center
03:12PM 35.8631 -77.9833 332° Northwest 164 189 12,000  Level Washington Center
03:13PM 35.9064 -78.0078 335° Northwest 164 189 12,000  Level Washington Center
03:14PM 35.9453 -78.0472 321° Northwest 170 196 12,000  Level Washington Center
03:15PM 35.9758 -78.0792 320° Northwest 169 194 12,000  Level Washington Center
03:16PM 36.0042 -78.1211 310° West 159 183 12,000  Level Washington Center
03:17PM 36.0283 -78.1578 309° West 159 183 12,000  Level Washington Center
03:18PM 36.0692 -78.2028 318° Northwest 165 190 12,000  Level Washington Center
03:18PM 36.0753 -78.2108 313° West 177 204 12,000  Level Washington Center
03:19PM 36.1100 -78.2506 317° Northwest 175 201 12,000  Level Washington Center
03:20PM 36.1403 -78.2875 315° West 168 193 12,000  Level Washington Center
03:21PM 36.1517 -78.3394 285° West 143 165 12,000  Level Washington Center
03:22PM 36.1525 -78.3933 271° West 143 165 12,000 -240 Level Washington Center
03:23PM 36.1533 -78.4475 271° West 148 170 11,600 -540 Descending Washington Center
03:24PM 36.1542 -78.4964 271° West 148 170 10,900 -660 Descending Washington Center
03:25PM 36.1550 -78.5503 271° West 148 170 10,300 -480 Descending Washington Center
03:26PM 36.1539 -78.5942 268° West 146 168 10,000 -180 Descending Washington Center
03:27PM 36.1569 -78.6406 275° West 141 162 10,000  Level Washington Center
03:28PM 36.1556 -78.6944 268° West 141 162 10,000  Level Washington Center
03:29PM 36.1561 -78.7486 271° West 140 161 10,000  Level Washington Center
03:30PM 36.1589 -78.8025 274° West 140 161 10,000  Level Washington Center
03:32PM 36.1575 -78.8542 268° West 139 160 10,000  Level Washington Center
03:33PM 36.1581 -78.9081 271° West 139 160 10,000  Level Washington Center
03:35PM 36.1304 -79.0143 252° West  Level FlightAware Approximate
03:42PM 36.0291 -79.4030 255° West  Level FlightAware Approximate
03:43PM 36.0169 -79.4592 255° West  Level FlightAware Approximate
03:44PM 36.0047 -79.5153 255° West  Level FlightAware Approximate
03:45PM 35.9925 -79.5714 255° West  Level FlightAware Approximate
03:46PM 35.9803 -79.6275 255° West  Level FlightAware Approximate
03:47PM 35.9680 -79.6836 255° West  Level FlightAware Approximate